sensor_id;sensor_type;location;lat;lon;timestamp;pressure;altitude;pressure_sealevel;temperature;humidity
74169;BME280;62523;53.336;83.690;2023-07-31T00:00:57;98292.88;;;20.70;100.00
74169;BME280;62523;53.336;83.690;2023-07-31T00:05:59;98300.28;;;20.20;100.00
74169;BME280;62523;53.336;83.690;2023-07-31T00:11:01;98307.34;;;20.44;100.00
74169;BME280;62523;53.336;83.690;2023-07-31T00:16:03;98317.06;;;19.49;100.00
74169;BME280;62523;53.336;83.690;2023-07-31T00:21:04;98323.03;;;20.00;100.00
74169;BME280;62523;53.336;83.690;2023-07-31T00:26:06;98320.47;;;20.71;100.00
74169;BME280;62523;53.336;83.690;2023-07-31T00:31:08;98319.59;;;20.78;100.00
74169;BME280;62523;53.336;83.690;2023-07-31T00:36:09;98331.50;;;20.99;100.00
74169;BME280;62523;53.336;83.690;2023-07-31T00:41:11;98327.81;;;21.23;100.00
74169;BME280;62523;53.336;83.690;2023-07-31T00:46:13;98320.31;;;22.32;100.00
74169;BME280;62523;53.336;83.690;2023-07-31T00:51:15;98332.50;;;21.90;100.00
74169;BME280;62523;53.336;83.690;2023-07-31T00:56:18;98333.06;;;21.16;100.00
74169;BME280;62523;53.336;83.690;2023-07-31T01:01:20;98329.72;;;21.37;100.00
74169;BME280;62523;53.336;83.690;2023-07-31T01:16:26;98344.81;;;21.61;100.00
74169;BME280;62523;53.336;83.690;2023-07-31T01:27:12;98360.06;;;21.99;100.00
74169;BME280;62523;53.336;83.690;2023-07-31T01:32:17;98346.94;;;22.19;100.00
74169;BME280;62523;53.336;83.690;2023-07-31T01:37:20;98348.81;;;22.48;100.00
74169;BME280;62523;53.336;83.690;2023-07-31T01:42:22;98342.81;;;22.31;100.00
74169;BME280;62523;53.336;83.690;2023-07-31T01:47:23;98346.66;;;22.73;100.00
74169;BME280;62523;53.336;83.690;2023-07-31T01:52:25;98339.78;;;23.22;100.00
74169;BME280;62523;53.336;83.690;2023-07-31T01:57:27;98335.94;;;22.43;100.00
74169;BME280;62523;53.336;83.690;2023-07-31T02:02:28;98348.13;;;22.01;100.00
74169;BME280;62523;53.336;83.690;2023-07-31T02:07:30;98336.50;;;22.39;100.00
74169;BME280;62523;53.336;83.690;2023-07-31T02:12:32;98341.97;;;22.16;100.00
74169;BME280;62523;53.336;83.690;2023-07-31T02:17:35;98337.06;;;21.66;100.00
74169;BME280;62523;53.336;83.690;2023-07-31T02:22:37;98337.97;;;21.59;100.00
74169;BME280;62523;53.336;83.690;2023-07-31T02:27:39;98347.06;;;21.87;100.00
74169;BME280;62523;53.336;83.690;2023-07-31T02:32:41;98338.63;;;21.61;100.00
74169;BME280;62523;53.336;83.690;2023-07-31T02:37:43;98340.00;;;21.57;100.00
74169;BME280;62523;53.336;83.690;2023-07-31T02:42:44;98339.13;;;21.79;100.00
74169;BME280;62523;53.336;83.690;2023-07-31T02:47:46;98336.56;;;21.86;100.00
74169;BME280;62523;53.336;83.690;2023-07-31T02:52:57;98344.50;;;21.79;100.00
74169;BME280;62523;53.336;83.690;2023-07-31T02:57:58;98343.03;;;22.81;100.00
74169;BME280;62523;53.336;83.690;2023-07-31T03:03:03;98335.41;;;22.33;100.00
74169;BME280;62523;53.336;83.690;2023-07-31T03:08:04;98342.16;;;22.29;100.00
74169;BME280;62523;53.336;83.690;2023-07-31T03:13:06;98329.16;;;22.62;100.00
74169;BME280;62523;53.336;83.690;2023-07-31T03:18:08;98329.84;;;22.49;100.00
74169;BME280;62523;53.336;83.690;2023-07-31T03:23:10;98325.78;;;22.39;100.00
74169;BME280;62523;53.336;83.690;2023-07-31T03:28:12;98316.97;;;22.45;100.00
74169;BME280;62523;53.336;83.690;2023-07-31T03:33:14;98331.59;;;22.57;100.00
74169;BME280;62523;53.336;83.690;2023-07-31T03:38:15;98329.50;;;23.04;100.00
74169;BME280;62523;53.336;83.690;2023-07-31T03:43:17;98331.06;;;22.83;100.00
74169;BME280;62523;53.336;83.690;2023-07-31T03:48:19;98335.13;;;23.30;100.00
74169;BME280;62523;53.336;83.690;2023-07-31T03:53:21;98335.50;;;23.06;100.00
74169;BME280;62523;53.336;83.690;2023-07-31T03:58:22;98332.03;;;23.34;100.00
74169;BME280;62523;53.336;83.690;2023-07-31T04:03:24;98327.00;;;23.45;97.76
74169;BME280;62523;53.336;83.690;2023-07-31T04:08:26;98330.84;;;23.15;96.95
74169;BME280;62523;53.336;83.690;2023-07-31T04:13:29;98329.16;;;23.35;97.14
74169;BME280;62523;53.336;83.690;2023-07-31T04:18:32;98330.97;;;23.49;97.08
74169;BME280;62523;53.336;83.690;2023-07-31T04:23:33;98327.34;;;24.48;87.37
74169;BME280;62523;53.336;83.690;2023-07-31T04:28:35;98324.91;;;24.60;82.33
74169;BME280;62523;53.336;83.690;2023-07-31T04:33:36;98327.88;;;24.02;89.79
74169;BME280;62523;53.336;83.690;2023-07-31T04:38:38;98319.63;;;24.45;89.74
74169;BME280;62523;53.336;83.690;2023-07-31T04:43:40;98317.63;;;23.84;93.47
74169;BME280;62523;53.336;83.690;2023-07-31T04:48:42;98321.44;;;24.80;86.37
74169;BME280;62523;53.336;83.690;2023-07-31T04:53:44;98323.63;;;24.56;92.18
74169;BME280;62523;53.336;83.690;2023-07-31T04:58:46;98335.03;;;23.88;91.62
74169;BME280;62523;53.336;83.690;2023-07-31T05:03:48;98347.84;;;23.65;94.65
74169;BME280;62523;53.336;83.690;2023-07-31T05:08:51;98352.44;;;23.71;94.59
74169;BME280;62523;53.336;83.690;2023-07-31T05:13:52;98352.47;;;23.99;94.13
74169;BME280;62523;53.336;83.690;2023-07-31T05:18:54;98349.94;;;24.26;86.02
74169;BME280;62523;53.336;83.690;2023-07-31T05:23:56;98338.66;;;25.53;77.04
74169;BME280;62523;53.336;83.690;2023-07-31T05:28:57;98338.50;;;25.00;83.09
74169;BME280;62523;53.336;83.690;2023-07-31T05:33:59;98340.53;;;24.43;86.30
74169;BME280;62523;53.336;83.690;2023-07-31T05:39:01;98337.09;;;25.18;80.03
74169;BME280;62523;53.336;83.690;2023-07-31T05:44:07;98324.44;;;25.18;76.40
74169;BME280;62523;53.336;83.690;2023-07-31T05:49:09;98324.63;;;24.97;81.57
74169;BME280;62523;53.336;83.690;2023-07-31T05:54:11;98324.44;;;25.05;79.83
74169;BME280;62523;53.336;83.690;2023-07-31T05:59:13;98324.44;;;25.18;79.84
74169;BME280;62523;53.336;83.690;2023-07-31T06:04:15;98323.06;;;25.36;76.53
74169;BME280;62523;53.336;83.690;2023-07-31T06:09:17;98329.06;;;25.31;77.17
74169;BME280;62523;53.336;83.690;2023-07-31T06:14:18;98328.97;;;24.98;79.03
74169;BME280;62523;53.336;83.690;2023-07-31T06:19:20;98332.41;;;25.60;77.02
74169;BME280;62523;53.336;83.690;2023-07-31T06:24:22;98333.03;;;25.62;77.99
74169;BME280;62523;53.336;83.690;2023-07-31T06:29:24;98327.00;;;25.46;76.46
74169;BME280;62523;53.336;83.690;2023-07-31T06:34:26;98328.69;;;25.34;75.76
74169;BME280;62523;53.336;83.690;2023-07-31T06:39:27;98325.03;;;25.00;76.93
74169;BME280;62523;53.336;83.690;2023-07-31T06:44:29;98329.69;;;25.60;74.75
74169;BME280;62523;53.336;83.690;2023-07-31T06:49:31;98333.88;;;25.62;75.93
74169;BME280;62523;53.336;83.690;2023-07-31T06:54:33;98328.66;;;26.21;68.92
74169;BME280;62523;53.336;83.690;2023-07-31T06:59:34;98320.59;;;25.94;74.52
74169;BME280;62523;53.336;83.690;2023-07-31T07:04:39;98318.72;;;25.48;79.10
74169;BME280;62523;53.336;83.690;2023-07-31T07:09:41;98321.22;;;25.36;80.93
74169;BME280;62523;53.336;83.690;2023-07-31T07:14:43;98327.00;;;25.53;79.48
74169;BME280;62523;53.336;83.690;2023-07-31T07:19:45;98319.75;;;25.40;80.49
74169;BME280;62523;53.336;83.690;2023-07-31T07:24:50;98321.84;;;25.45;80.84
74169;BME280;62523;53.336;83.690;2023-07-31T07:29:52;98320.69;;;24.99;82.84
74169;BME280;62523;53.336;83.690;2023-07-31T07:34:55;98324.31;;;25.33;81.79
74169;BME280;62523;53.336;83.690;2023-07-31T07:39:57;98323.06;;;25.36;78.92
74169;BME280;62523;53.336;83.690;2023-07-31T07:44:59;98322.84;;;25.30;79.92
74169;BME280;62523;53.336;83.690;2023-07-31T07:50:01;98320.09;;;25.10;81.55
74169;BME280;62523;53.336;83.690;2023-07-31T07:55:03;98319.53;;;25.55;76.85
74169;BME280;62523;53.336;83.690;2023-07-31T08:00:05;98306.47;;;25.85;72.90
74169;BME280;62523;53.336;83.690;2023-07-31T08:05:15;98308.38;;;25.51;76.02
74169;BME280;62523;53.336;83.690;2023-07-31T08:10:18;98301.09;;;25.59;75.64
74169;BME280;62523;53.336;83.690;2023-07-31T08:15:20;98301.22;;;25.04;78.62
74169;BME280;62523;53.336;83.690;2023-07-31T08:20:21;98304.38;;;25.87;75.03
74169;BME280;62523;53.336;83.690;2023-07-31T08:25:23;98314.78;;;25.97;75.01
74169;BME280;62523;53.336;83.690;2023-07-31T08:30:25;98305.03;;;25.96;76.72
74169;BME280;62523;53.336;83.690;2023-07-31T08:35:29;98306.91;;;25.89;79.30
74169;BME280;62523;53.336;83.690;2023-07-31T08:40:37;98313.09;;;25.29;85.26
74169;BME280;62523;53.336;83.690;2023-07-31T08:45:41;98309.38;;;25.50;83.53
74169;BME280;62523;53.336;83.690;2023-07-31T08:50:43;98315.00;;;25.56;82.12
74169;BME280;62523;53.336;83.690;2023-07-31T08:55:45;98303.78;;;25.79;80.25
74169;BME280;62523;53.336;83.690;2023-07-31T09:00:47;98308.13;;;25.60;80.18
74169;BME280;62523;53.336;83.690;2023-07-31T09:05:50;98304.63;;;25.92;77.62
74169;BME280;62523;53.336;83.690;2023-07-31T09:10:51;98296.28;;;25.87;75.98
74169;BME280;62523;53.336;83.690;2023-07-31T09:15:53;98292.38;;;25.97;75.52
74169;BME280;62523;53.336;83.690;2023-07-31T09:21:05;98293.75;;;26.84;69.46
74169;BME280;62523;53.336;83.690;2023-07-31T09:26:07;98285.38;;;26.92;67.37
74169;BME280;62523;53.336;83.690;2023-07-31T09:31:09;98293.00;;;26.70;69.20
74169;BME280;62523;53.336;83.690;2023-07-31T09:36:10;98282.19;;;27.09;69.37
74169;BME280;62523;53.336;83.690;2023-07-31T09:41:13;98279.53;;;26.64;70.36
74169;BME280;62523;53.336;83.690;2023-07-31T09:46:15;98273.75;;;26.47;71.90
74169;BME280;62523;53.336;83.690;2023-07-31T09:51:16;98274.66;;;26.79;70.62
74169;BME280;62523;53.336;83.690;2023-07-31T09:56:21;98274.97;;;26.96;70.59
74169;BME280;62523;53.336;83.690;2023-07-31T10:01:24;98272.78;;;26.21;72.39
74169;BME280;62523;53.336;83.690;2023-07-31T10:06:26;98278.25;;;26.66;71.90
74169;BME280;62523;53.336;83.690;2023-07-31T10:11:29;98281.72;;;26.22;76.56
74169;BME280;62523;53.336;83.690;2023-07-31T10:16:33;98296.13;;;25.89;82.20
74169;BME280;62523;53.336;83.690;2023-07-31T10:21:36;98275.44;;;27.25;72.20
74169;BME280;62523;53.336;83.690;2023-07-31T10:26:39;98278.69;;;26.63;75.58
74169;BME280;62523;53.336;83.690;2023-07-31T10:31:42;98279.28;;;25.93;81.41
74169;BME280;62523;53.336;83.690;2023-07-31T10:36:44;98275.72;;;26.13;80.65
74169;BME280;62523;53.336;83.690;2023-07-31T10:41:46;98278.16;;;26.28;77.77
74169;BME280;62523;53.336;83.690;2023-07-31T10:46:47;98275.56;;;25.74;80.19
74169;BME280;62523;53.336;83.690;2023-07-31T10:51:49;98267.00;;;26.11;77.46
74169;BME280;62523;53.336;83.690;2023-07-31T10:56:50;98265.97;;;26.70;73.34
74169;BME280;62523;53.336;83.690;2023-07-31T11:01:55;98271.00;;;25.82;79.16
74169;BME280;62523;53.336;83.690;2023-07-31T11:07:03;98275.84;;;26.38;76.44
74169;BME280;62523;53.336;83.690;2023-07-31T11:12:09;98275.34;;;25.96;79.27
74169;BME280;62523;53.336;83.690;2023-07-31T11:17:13;98267.00;;;26.24;75.43
74169;BME280;62523;53.336;83.690;2023-07-31T11:22:15;98274.22;;;26.30;75.25
74169;BME280;62523;53.336;83.690;2023-07-31T11:27:17;98271.59;;;26.10;74.61
74169;BME280;62523;53.336;83.690;2023-07-31T11:32:19;98273.50;;;25.90;75.28
74169;BME280;62523;53.336;83.690;2023-07-31T11:37:21;98269.97;;;25.89;75.01
74169;BME280;62523;53.336;83.690;2023-07-31T11:42:24;98274.34;;;25.90;75.83
74169;BME280;62523;53.336;83.690;2023-07-31T11:47:26;98267.88;;;25.91;77.12
74169;BME280;62523;53.336;83.690;2023-07-31T11:52:32;98269.31;;;25.87;76.76
74169;BME280;62523;53.336;83.690;2023-07-31T11:57:39;98269.34;;;26.01;76.45
74169;BME280;62523;53.336;83.690;2023-07-31T12:02:42;98262.38;;;26.83;70.72
74169;BME280;62523;53.336;83.690;2023-07-31T12:18:03;98273.81;;;26.33;74.69
74169;BME280;62523;53.336;83.690;2023-07-31T12:23:05;98271.16;;;27.04;70.07
74169;BME280;62523;53.336;83.690;2023-07-31T12:28:07;98258.84;;;27.90;63.99
74169;BME280;62523;53.336;83.690;2023-07-31T12:33:14;98261.16;;;27.11;68.09
74169;BME280;62523;53.336;83.690;2023-07-31T12:38:16;98258.06;;;27.39;67.16
74169;BME280;62523;53.336;83.690;2023-07-31T12:43:18;98267.41;;;26.73;71.70
74169;BME280;62523;53.336;83.690;2023-07-31T12:48:20;98257.19;;;27.45;68.92
74169;BME280;62523;53.336;83.690;2023-07-31T12:53:22;98262.09;;;27.30;67.31
74169;BME280;62523;53.336;83.690;2023-07-31T12:58:23;98266.72;;;27.23;68.43
74169;BME280;62523;53.336;83.690;2023-07-31T13:03:26;98268.47;;;27.35;69.69
74169;BME280;62523;53.336;83.690;2023-07-31T13:08:29;98273.91;;;26.97;70.33
74169;BME280;62523;53.336;83.690;2023-07-31T13:13:34;98273.44;;;26.75;71.36
74169;BME280;62523;53.336;83.690;2023-07-31T13:18:36;98274.22;;;26.82;71.86
74169;BME280;62523;53.336;83.690;2023-07-31T13:23:41;98280.97;;;25.94;78.55
74169;BME280;62523;53.336;83.690;2023-07-31T13:28:45;98282.03;;;25.53;80.39
74169;BME280;62523;53.336;83.690;2023-07-31T13:33:48;98283.25;;;25.31;82.65
74169;BME280;62523;53.336;83.690;2023-07-31T13:38:54;98278.00;;;25.09;82.66
74169;BME280;62523;53.336;83.690;2023-07-31T13:43:56;98297.91;;;25.02;82.39
74169;BME280;62523;53.336;83.690;2023-07-31T13:48:59;98299.13;;;24.92;85.47
74169;BME280;62523;53.336;83.690;2023-07-31T13:54:05;98294.56;;;24.93;85.05
74169;BME280;62523;53.336;83.690;2023-07-31T13:59:14;98298.47;;;24.90;85.91
74169;BME280;62523;53.336;83.690;2023-07-31T14:04:18;98303.63;;;24.72;87.34
74169;BME280;62523;53.336;83.690;2023-07-31T14:09:20;98305.84;;;24.62;89.13
74169;BME280;62523;53.336;83.690;2023-07-31T14:14:26;98307.91;;;24.53;90.08
74169;BME280;62523;53.336;83.690;2023-07-31T14:19:27;98319.59;;;24.39;91.82
74169;BME280;62523;53.336;83.690;2023-07-31T14:24:33;98316.88;;;24.32;91.83
74169;BME280;62523;53.336;83.690;2023-07-31T14:29:35;98328.03;;;24.29;94.77
74169;BME280;62523;53.336;83.690;2023-07-31T14:34:38;98327.91;;;24.09;95.98
74169;BME280;62523;53.336;83.690;2023-07-31T14:39:39;98327.91;;;23.81;99.43
74169;BME280;62523;53.336;83.690;2023-07-31T14:44:41;98324.91;;;23.69;100.00
74169;BME280;62523;53.336;83.690;2023-07-31T14:49:47;98325.06;;;23.61;100.00
74169;BME280;62523;53.336;83.690;2023-07-31T14:54:52;98326.78;;;23.68;100.00
74169;BME280;62523;53.336;83.690;2023-07-31T15:00:00;98331.19;;;23.55;100.00
74169;BME280;62523;53.336;83.690;2023-07-31T15:05:01;98338.69;;;23.16;100.00
74169;BME280;62523;53.336;83.690;2023-07-31T15:10:06;98333.19;;;23.24;100.00
74169;BME280;62523;53.336;83.690;2023-07-31T15:15:15;98343.00;;;23.10;100.00
74169;BME280;62523;53.336;83.690;2023-07-31T15:20:20;98340.59;;;22.86;100.00
74169;BME280;62523;53.336;83.690;2023-07-31T15:25:23;98349.41;;;22.80;100.00
74169;BME280;62523;53.336;83.690;2023-07-31T15:30:25;98353.88;;;22.73;100.00
74169;BME280;62523;53.336;83.690;2023-07-31T15:35:29;98347.31;;;22.60;100.00
74169;BME280;62523;53.336;83.690;2023-07-31T15:40:35;98342.78;;;22.61;100.00
74169;BME280;62523;53.336;83.690;2023-07-31T15:45:39;98346.75;;;22.65;100.00
74169;BME280;62523;53.336;83.690;2023-07-31T15:50:41;98347.16;;;22.47;100.00
74169;BME280;62523;53.336;83.690;2023-07-31T15:55:45;98334.94;;;22.44;100.00
74169;BME280;62523;53.336;83.690;2023-07-31T16:00:47;98344.66;;;22.31;100.00
74169;BME280;62523;53.336;83.690;2023-07-31T16:05:49;98342.78;;;22.16;100.00
74169;BME280;62523;53.336;83.690;2023-07-31T16:10:51;98335.19;;;22.20;100.00
74169;BME280;62523;53.336;83.690;2023-07-31T16:15:53;98332.97;;;22.08;100.00
74169;BME280;62523;53.336;83.690;2023-07-31T16:20:55;98333.78;;;22.09;100.00
74169;BME280;62523;53.336;83.690;2023-07-31T16:25:56;98338.31;;;21.94;100.00
74169;BME280;62523;53.336;83.690;2023-07-31T16:30:58;98334.63;;;21.95;100.00
74169;BME280;62523;53.336;83.690;2023-07-31T16:35:59;98330.81;;;21.89;100.00
74169;BME280;62523;53.336;83.690;2023-07-31T16:41:01;98332.25;;;21.77;100.00
74169;BME280;62523;53.336;83.690;2023-07-31T16:46:03;98331.47;;;21.91;100.00
74169;BME280;62523;53.336;83.690;2023-07-31T16:51:04;98317.63;;;22.32;100.00
74169;BME280;62523;53.336;83.690;2023-07-31T16:56:06;98325.75;;;21.94;100.00
74169;BME280;62523;53.336;83.690;2023-07-31T17:01:08;98329.81;;;21.90;100.00
74169;BME280;62523;53.336;83.690;2023-07-31T17:06:09;98326.28;;;22.04;100.00
74169;BME280;62523;53.336;83.690;2023-07-31T17:11:11;98321.56;;;21.92;100.00
74169;BME280;62523;53.336;83.690;2023-07-31T17:16:12;98325.06;;;21.77;100.00
74169;BME280;62523;53.336;83.690;2023-07-31T17:21:14;98316.47;;;21.44;100.00
74169;BME280;62523;53.336;83.690;2023-07-31T17:26:15;98325.59;;;21.58;100.00
74169;BME280;62523;53.336;83.690;2023-07-31T17:31:17;98329.50;;;21.01;100.00
74169;BME280;62523;53.336;83.690;2023-07-31T17:36:18;98311.94;;;20.98;100.00
74169;BME280;62523;53.336;83.690;2023-07-31T17:41:20;98318.94;;;20.76;100.00
74169;BME280;62523;53.336;83.690;2023-07-31T17:46:22;98319.16;;;20.66;100.00
74169;BME280;62523;53.336;83.690;2023-07-31T17:51:23;98320.22;;;20.49;100.00
74169;BME280;62523;53.336;83.690;2023-07-31T17:56:25;98309.38;;;20.42;100.00
74169;BME280;62523;53.336;83.690;2023-07-31T18:01:27;98307.09;;;20.23;100.00
74169;BME280;62523;53.336;83.690;2023-07-31T18:06:28;98309.16;;;20.04;100.00
74169;BME280;62523;53.336;83.690;2023-07-31T18:11:35;98298.94;;;20.64;100.00
74169;BME280;62523;53.336;83.690;2023-07-31T18:16:37;98295.25;;;20.65;100.00
74169;BME280;62523;53.336;83.690;2023-07-31T18:21:38;98281.09;;;20.79;100.00
74169;BME280;62523;53.336;83.690;2023-07-31T18:26:40;98289.28;;;20.46;100.00
74169;BME280;62523;53.336;83.690;2023-07-31T18:31:41;98288.22;;;20.24;100.00
74169;BME280;62523;53.336;83.690;2023-07-31T18:36:43;98292.28;;;20.04;100.00
74169;BME280;62523;53.336;83.690;2023-07-31T18:41:44;98293.84;;;19.98;100.00
74169;BME280;62523;53.336;83.690;2023-07-31T18:46:46;98296.66;;;19.97;100.00
74169;BME280;62523;53.336;83.690;2023-07-31T18:51:48;98287.97;;;20.03;100.00
74169;BME280;62523;53.336;83.690;2023-07-31T18:56:49;98283.31;;;19.97;100.00
74169;BME280;62523;53.336;83.690;2023-07-31T19:01:51;98279.94;;;20.03;100.00
74169;BME280;62523;53.336;83.690;2023-07-31T19:06:52;98274.91;;;20.48;100.00
74169;BME280;62523;53.336;83.690;2023-07-31T19:11:54;98278.50;;;20.32;100.00
74169;BME280;62523;53.336;83.690;2023-07-31T19:16:56;98280.38;;;20.23;100.00
74169;BME280;62523;53.336;83.690;2023-07-31T19:21:57;98278.09;;;20.43;100.00
74169;BME280;62523;53.336;83.690;2023-07-31T19:26:59;98274.50;;;20.28;100.00
74169;BME280;62523;53.336;83.690;2023-07-31T19:32:01;98276.03;;;20.22;100.00
74169;BME280;62523;53.336;83.690;2023-07-31T19:37:03;98275.72;;;20.17;100.00
74169;BME280;62523;53.336;83.690;2023-07-31T19:42:04;98282.66;;;20.34;100.00
74169;BME280;62523;53.336;83.690;2023-07-31T19:47:06;98281.56;;;20.12;100.00
74169;BME280;62523;53.336;83.690;2023-07-31T19:52:07;98277.97;;;19.97;100.00
74169;BME280;62523;53.336;83.690;2023-07-31T19:57:09;98280.47;;;19.90;100.00
74169;BME280;62523;53.336;83.690;2023-07-31T20:02:10;98289.84;;;19.94;100.00
74169;BME280;62523;53.336;83.690;2023-07-31T20:07:12;98285.00;;;19.65;100.00
74169;BME280;62523;53.336;83.690;2023-07-31T20:12:14;98289.69;;;19.63;100.00
74169;BME280;62523;53.336;83.690;2023-07-31T20:17:16;98297.06;;;19.44;100.00
74169;BME280;62523;53.336;83.690;2023-07-31T20:22:17;98293.38;;;19.70;100.00
74169;BME280;62523;53.336;83.690;2023-07-31T20:27:21;98289.22;;;19.51;100.00
74169;BME280;62523;53.336;83.690;2023-07-31T20:32:23;98306.19;;;19.91;100.00
74169;BME280;62523;53.336;83.690;2023-07-31T20:37:25;98303.88;;;19.63;100.00
74169;BME280;62523;53.336;83.690;2023-07-31T20:42:27;98304.22;;;19.69;100.00
74169;BME280;62523;53.336;83.690;2023-07-31T20:47:29;98306.06;;;19.43;100.00
74169;BME280;62523;53.336;83.690;2023-07-31T20:52:30;98316.94;;;19.75;100.00
74169;BME280;62523;53.336;83.690;2023-07-31T20:57:32;98314.59;;;19.47;100.00
74169;BME280;62523;53.336;83.690;2023-07-31T21:02:33;98316.41;;;19.55;100.00
74169;BME280;62523;53.336;83.690;2023-07-31T21:07:36;98307.34;;;20.05;100.00
74169;BME280;62523;53.336;83.690;2023-07-31T21:12:38;98303.88;;;19.80;100.00
74169;BME280;62523;53.336;83.690;2023-07-31T21:17:42;98300.91;;;19.75;100.00
74169;BME280;62523;53.336;83.690;2023-07-31T21:22:44;98310.72;;;19.58;100.00
74169;BME280;62523;53.336;83.690;2023-07-31T21:27:55;98318.06;;;19.39;100.00
74169;BME280;62523;53.336;83.690;2023-07-31T21:32:57;98317.25;;;19.47;100.00
74169;BME280;62523;53.336;83.690;2023-07-31T21:37:59;98323.44;;;19.23;100.00
74169;BME280;62523;53.336;83.690;2023-07-31T21:43:01;98324.25;;;19.48;100.00
74169;BME280;62523;53.336;83.690;2023-07-31T21:48:03;98325.94;;;19.49;100.00
74169;BME280;62523;53.336;83.690;2023-07-31T21:53:05;98329.59;;;19.15;100.00
74169;BME280;62523;53.336;83.690;2023-07-31T21:58:06;98328.88;;;18.89;100.00
74169;BME280;62523;53.336;83.690;2023-07-31T22:03:08;98324.09;;;18.66;100.00
74169;BME280;62523;53.336;83.690;2023-07-31T22:08:10;98326.09;;;18.64;100.00
74169;BME280;62523;53.336;83.690;2023-07-31T22:13:12;98328.38;;;18.85;100.00
74169;BME280;62523;53.336;83.690;2023-07-31T22:18:13;98325.34;;;18.88;100.00
74169;BME280;62523;53.336;83.690;2023-07-31T22:23:15;98319.44;;;18.68;100.00
74169;BME280;62523;53.336;83.690;2023-07-31T22:28:17;98326.38;;;18.45;100.00
74169;BME280;62523;53.336;83.690;2023-07-31T22:33:18;98330.72;;;18.46;100.00
74169;BME280;62523;53.336;83.690;2023-07-31T22:38:20;98325.84;;;18.41;100.00
74169;BME280;62523;53.336;83.690;2023-07-31T22:43:21;98330.63;;;18.72;100.00
74169;BME280;62523;53.336;83.690;2023-07-31T22:48:23;98327.91;;;18.55;100.00
74169;BME280;62523;53.336;83.690;2023-07-31T22:53:24;98335.34;;;18.35;100.00
74169;BME280;62523;53.336;83.690;2023-07-31T22:58:26;98335.91;;;18.55;100.00
74169;BME280;62523;53.336;83.690;2023-07-31T23:03:28;98332.03;;;18.50;100.00
74169;BME280;62523;53.336;83.690;2023-07-31T23:08:29;98337.69;;;18.81;100.00
74169;BME280;62523;53.336;83.690;2023-07-31T23:13:32;98341.38;;;18.96;100.00
74169;BME280;62523;53.336;83.690;2023-07-31T23:18:34;98334.06;;;18.98;100.00
74169;BME280;62523;53.336;83.690;2023-07-31T23:23:35;98334.38;;;18.87;100.00
74169;BME280;62523;53.336;83.690;2023-07-31T23:28:37;98332.41;;;18.97;100.00
74169;BME280;62523;53.336;83.690;2023-07-31T23:33:39;98334.41;;;19.20;100.00
74169;BME280;62523;53.336;83.690;2023-07-31T23:38:40;98342.59;;;19.27;100.00
74169;BME280;62523;53.336;83.690;2023-07-31T23:43:42;98339.63;;;20.35;100.00
74169;BME280;62523;53.336;83.690;2023-07-31T23:48:44;98323.44;;;21.30;100.00
74169;BME280;62523;53.336;83.690;2023-07-31T23:53:45;98324.19;;;22.59;100.00
74169;BME280;62523;53.336;83.690;2023-07-31T23:58:47;98325.47;;;22.63;100.00
